Terminal Aerodrome Forecast
Issued by NWS

Home | Current Version | Previous Version | Text Only | Print | Product List | Glossary On
Versions: 1 2 3 4 5 6 7 8 9 10 11 12 13 14
000
FTUS46 KPDT 262320
TAFYKM
TAF
KYKM 262320Z 2700/2724 28018G26KT P6SM SCT060
     FM270300 29014G20KT P6SM SCT070
     FM270600 28007KT P6SM FEW090
     FM271700 30012G19KT P6SM SCT070=

USA.gov is the U.S. government's official web portal to all federal, state and local government web resources and services.